sensor_id;sensor_type;location;lat;lon;timestamp;temperature;humidity
71117;SHT31;58775;46.992;9.518;2023-05-07T01:29:33;15.12;78.38
71117;SHT31;58775;46.992;9.518;2023-05-07T02:18:28;14.49;79.66
71117;SHT31;58775;46.992;9.518;2023-05-07T06:26:41;15.39;75.46
71117;SHT31;58775;46.992;9.518;2023-05-07T06:52:20;18.71;69.90
71117;SHT31;58775;46.992;9.518;2023-05-07T06:54:27;18.59;68.08
71117;SHT31;58775;46.992;9.518;2023-05-07T06:56:32;18.74;69.07
71117;SHT31;58775;46.992;9.518;2023-05-07T06:58:36;18.75;67.74
71117;SHT31;58775;46.992;9.518;2023-05-07T07:00:38;18.33;68.04
71117;SHT31;58775;46.992;9.518;2023-05-07T07:02:44;18.13;69.27
71117;SHT31;58775;46.992;9.518;2023-05-07T07:04:49;18.30;67.06
71117;SHT31;58775;46.992;9.518;2023-05-07T07:06:54;17.60;70.23
71117;SHT31;58775;46.992;9.518;2023-05-07T07:09:00;17.38;71.48
71117;SHT31;58775;46.992;9.518;2023-05-07T07:11:06;17.62;70.88
71117;SHT31;58775;46.992;9.518;2023-05-07T07:13:11;17.62;71.30
71117;SHT31;58775;46.992;9.518;2023-05-07T07:15:15;17.50;72.24
71117;SHT31;58775;46.992;9.518;2023-05-07T07:17:19;17.83;69.92
71117;SHT31;58775;46.992;9.518;2023-05-07T07:19:22;17.72;70.51
71117;SHT31;58775;46.992;9.518;2023-05-07T07:21:29;17.92;68.62
71117;SHT31;58775;46.992;9.518;2023-05-07T07:23:33;17.96;70.12
71117;SHT31;58775;46.992;9.518;2023-05-07T07:25:38;18.21;69.20
71117;SHT31;58775;46.992;9.518;2023-05-07T07:27:43;17.78;71.97
71117;SHT31;58775;46.992;9.518;2023-05-07T07:29:51;17.81;70.81
71117;SHT31;58775;46.992;9.518;2023-05-07T07:31:56;17.79;72.66
71117;SHT31;58775;46.992;9.518;2023-05-07T07:34:01;17.67;72.94
71117;SHT31;58775;46.992;9.518;2023-05-07T07:36:07;18.13;70.89
71117;SHT31;58775;46.992;9.518;2023-05-07T07:38:10;18.60;68.80
71117;SHT31;58775;46.992;9.518;2023-05-07T07:40:18;18.56;68.49
71117;SHT31;58775;46.992;9.518;2023-05-07T07:42:43;18.43;69.22
71117;SHT31;58775;46.992;9.518;2023-05-07T07:44:47;18.22;68.38
71117;SHT31;58775;46.992;9.518;2023-05-07T07:46:52;18.13;70.94
71117;SHT31;58775;46.992;9.518;2023-05-07T07:49:04;18.64;66.56
71117;SHT31;58775;46.992;9.518;2023-05-07T07:51:08;18.85;65.69
71117;SHT31;58775;46.992;9.518;2023-05-07T07:53:15;18.75;66.09
71117;SHT31;58775;46.992;9.518;2023-05-07T07:55:20;18.73;66.54
71117;SHT31;58775;46.992;9.518;2023-05-07T07:57:26;18.87;66.06
71117;SHT31;58775;46.992;9.518;2023-05-07T07:59:30;19.18;67.32
71117;SHT31;58775;46.992;9.518;2023-05-07T08:01:34;19.41;66.58
71117;SHT31;58775;46.992;9.518;2023-05-07T08:03:36;19.54;65.53
71117;SHT31;58775;46.992;9.518;2023-05-07T08:05:45;19.00;70.26
71117;SHT31;58775;46.992;9.518;2023-05-07T08:07:50;19.67;66.83
71117;SHT31;58775;46.992;9.518;2023-05-07T08:09:56;19.85;64.04
71117;SHT31;58775;46.992;9.518;2023-05-07T08:12:00;20.14;65.23
71117;SHT31;58775;46.992;9.518;2023-05-07T08:14:07;20.21;64.27
71117;SHT31;58775;46.992;9.518;2023-05-07T08:16:11;19.44;67.58
71117;SHT31;58775;46.992;9.518;2023-05-07T08:18:15;19.24;69.23
71117;SHT31;58775;46.992;9.518;2023-05-07T08:20:21;19.31;66.32
71117;SHT31;58775;46.992;9.518;2023-05-07T08:22:25;19.73;63.25
71117;SHT31;58775;46.992;9.518;2023-05-07T08:24:30;19.24;66.41
71117;SHT31;58775;46.992;9.518;2023-05-07T08:26:34;20.01;65.46
71117;SHT31;58775;46.992;9.518;2023-05-07T08:28:38;20.26;65.56
71117;SHT31;58775;46.992;9.518;2023-05-07T08:30:42;20.54;66.03
71117;SHT31;58775;46.992;9.518;2023-05-07T08:32:45;20.43;65.21
71117;SHT31;58775;46.992;9.518;2023-05-07T08:34:49;20.84;65.03
71117;SHT31;58775;46.992;9.518;2023-05-07T08:36:53;20.57;65.33
71117;SHT31;58775;46.992;9.518;2023-05-07T08:38:59;20.85;65.62
71117;SHT31;58775;46.992;9.518;2023-05-07T08:41:03;21.09;65.14
71117;SHT31;58775;46.992;9.518;2023-05-07T08:43:06;21.25;65.57
71117;SHT31;58775;46.992;9.518;2023-05-07T08:45:13;21.63;65.41
71117;SHT31;58775;46.992;9.518;2023-05-07T08:47:19;22.02;63.41
71117;SHT31;58775;46.992;9.518;2023-05-07T08:49:23;22.34;61.72
71117;SHT31;58775;46.992;9.518;2023-05-07T08:51:27;22.58;60.33
71117;SHT31;58775;46.992;9.518;2023-05-07T08:53:29;22.47;59.66
71117;SHT31;58775;46.992;9.518;2023-05-07T08:55:34;22.21;58.70
71117;SHT31;58775;46.992;9.518;2023-05-07T08:57:37;22.11;59.03
71117;SHT31;58775;46.992;9.518;2023-05-07T08:59:42;22.55;59.34
71117;SHT31;58775;46.992;9.518;2023-05-07T09:01:46;22.93;58.62
71117;SHT31;58775;46.992;9.518;2023-05-07T09:03:50;22.72;58.32
71117;SHT31;58775;46.992;9.518;2023-05-07T09:05:55;22.75;62.37
71117;SHT31;58775;46.992;9.518;2023-05-07T09:08:01;23.58;57.57
71117;SHT31;58775;46.992;9.518;2023-05-07T09:10:05;24.40;56.55
71117;SHT31;58775;46.992;9.518;2023-05-07T09:12:12;24.66;54.56
71117;SHT31;58775;46.992;9.518;2023-05-07T09:14:16;24.44;55.97
71117;SHT31;58775;46.992;9.518;2023-05-07T09:16:21;24.73;55.57
71117;SHT31;58775;46.992;9.518;2023-05-07T09:18:25;24.82;57.54
71117;SHT31;58775;46.992;9.518;2023-05-07T09:20:32;25.30;55.72
71117;SHT31;58775;46.992;9.518;2023-05-07T09:22:39;24.73;54.14
71117;SHT31;58775;46.992;9.518;2023-05-07T09:24:51;25.08;54.15
71117;SHT31;58775;46.992;9.518;2023-05-07T09:27:00;24.86;56.66
71117;SHT31;58775;46.992;9.518;2023-05-07T09:29:07;24.36;58.27
71117;SHT31;58775;46.992;9.518;2023-05-07T09:31:11;24.57;56.08
71117;SHT31;58775;46.992;9.518;2023-05-07T09:33:15;23.57;57.23
71117;SHT31;58775;46.992;9.518;2023-05-07T09:35:23;23.44;61.17
71117;SHT31;58775;46.992;9.518;2023-05-07T09:37:32;24.21;60.19
71117;SHT31;58775;46.992;9.518;2023-05-07T09:39:43;24.55;58.98
71117;SHT31;58775;46.992;9.518;2023-05-07T09:41:48;24.97;57.42
71117;SHT31;58775;46.992;9.518;2023-05-07T09:44:03;24.79;58.41
71117;SHT31;58775;46.992;9.518;2023-05-07T09:46:14;24.74;58.91
71117;SHT31;58775;46.992;9.518;2023-05-07T09:48:26;23.91;59.88
71117;SHT31;58775;46.992;9.518;2023-05-07T09:50:36;24.08;60.11
71117;SHT31;58775;46.992;9.518;2023-05-07T09:52:40;24.64;56.32
71117;SHT31;58775;46.992;9.518;2023-05-07T09:54:43;24.95;55.89
71117;SHT31;58775;46.992;9.518;2023-05-07T09:56:48;25.33;55.99
71117;SHT31;58775;46.992;9.518;2023-05-07T09:58:54;24.98;54.79
71117;SHT31;58775;46.992;9.518;2023-05-07T10:01:01;24.90;56.30
71117;SHT31;58775;46.992;9.518;2023-05-07T10:03:05;23.74;59.75
71117;SHT31;58775;46.992;9.518;2023-05-07T10:05:24;24.15;56.77
71117;SHT31;58775;46.992;9.518;2023-05-07T10:07:32;24.53;56.55
71117;SHT31;58775;46.992;9.518;2023-05-07T10:09:40;24.00;55.29
71117;SHT31;58775;46.992;9.518;2023-05-07T10:11:52;24.43;56.67
71117;SHT31;58775;46.992;9.518;2023-05-07T10:13:56;24.80;56.87
71117;SHT31;58775;46.992;9.518;2023-05-07T10:15:59;25.08;56.17
71117;SHT31;58775;46.992;9.518;2023-05-07T10:18:09;25.23;56.63
71117;SHT31;58775;46.992;9.518;2023-05-07T10:20:12;24.73;59.13
71117;SHT31;58775;46.992;9.518;2023-05-07T10:22:17;24.77;58.52
71117;SHT31;58775;46.992;9.518;2023-05-07T10:24:33;24.74;55.79
71117;SHT31;58775;46.992;9.518;2023-05-07T10:26:37;25.54;54.30
71117;SHT31;58775;46.992;9.518;2023-05-07T10:28:41;24.94;54.78
71117;SHT31;58775;46.992;9.518;2023-05-07T10:32:56;25.25;53.98
71117;SHT31;58775;46.992;9.518;2023-05-07T10:35:09;24.98;53.80
71117;SHT31;58775;46.992;9.518;2023-05-07T10:37:13;25.39;53.59
71117;SHT31;58775;46.992;9.518;2023-05-07T10:39:18;25.85;53.77
71117;SHT31;58775;46.992;9.518;2023-05-07T10:41:23;25.45;53.86
71117;SHT31;58775;46.992;9.518;2023-05-07T10:43:39;25.23;57.82
71117;SHT31;58775;46.992;9.518;2023-05-07T10:45:43;26.22;53.17
71117;SHT31;58775;46.992;9.518;2023-05-07T10:48:25;26.48;52.55
71117;SHT31;58775;46.992;9.518;2023-05-07T10:50:32;26.57;52.78
71117;SHT31;58775;46.992;9.518;2023-05-07T10:52:37;27.48;49.21
71117;SHT31;58775;46.992;9.518;2023-05-07T10:57:33;28.20;48.10
71117;SHT31;58775;46.992;9.518;2023-05-07T10:59:42;28.71;47.16
71117;SHT31;58775;46.992;9.518;2023-05-07T11:04:14;28.21;48.03
71117;SHT31;58775;46.992;9.518;2023-05-07T11:06:25;28.25;48.37
71117;SHT31;58775;46.992;9.518;2023-05-07T11:10:57;27.86;51.80
71117;SHT31;58775;46.992;9.518;2023-05-07T11:13:07;28.07;50.26
71117;SHT31;58775;46.992;9.518;2023-05-07T11:15:40;26.20;55.40
71117;SHT31;58775;46.992;9.518;2023-05-07T11:18:04;26.22;54.26
71117;SHT31;58775;46.992;9.518;2023-05-07T11:20:11;25.15;53.43
71117;SHT31;58775;46.992;9.518;2023-05-07T11:24:43;26.12;54.46
71117;SHT31;58775;46.992;9.518;2023-05-07T11:26:51;27.01;53.56
71117;SHT31;58775;46.992;9.518;2023-05-07T11:28:56;26.00;54.09
71117;SHT31;58775;46.992;9.518;2023-05-07T11:31:01;26.50;49.16
71117;SHT31;58775;46.992;9.518;2023-05-07T11:33:05;26.81;44.66
71117;SHT31;58775;46.992;9.518;2023-05-07T11:35:09;26.81;48.16
71117;SHT31;58775;46.992;9.518;2023-05-07T11:37:17;27.24;50.10
71117;SHT31;58775;46.992;9.518;2023-05-07T11:39:31;27.02;49.94
71117;SHT31;58775;46.992;9.518;2023-05-07T11:41:35;27.60;51.18
71117;SHT31;58775;46.992;9.518;2023-05-07T11:43:54;27.50;50.46
71117;SHT31;58775;46.992;9.518;2023-05-07T11:46:19;28.00;51.78
71117;SHT31;58775;46.992;9.518;2023-05-07T11:48:23;28.00;48.25
71117;SHT31;58775;46.992;9.518;2023-05-07T11:50:27;28.10;51.36
71117;SHT31;58775;46.992;9.518;2023-05-07T11:52:30;27.85;49.92
71117;SHT31;58775;46.992;9.518;2023-05-07T11:54:37;28.07;51.13
71117;SHT31;58775;46.992;9.518;2023-05-07T11:56:41;27.97;51.91
71117;SHT31;58775;46.992;9.518;2023-05-07T11:58:46;28.69;48.67
71117;SHT31;58775;46.992;9.518;2023-05-07T12:00:50;28.67;47.96
71117;SHT31;58775;46.992;9.518;2023-05-07T12:02:52;27.21;51.70
71117;SHT31;58775;46.992;9.518;2023-05-07T12:04:57;27.93;49.70
71117;SHT31;58775;46.992;9.518;2023-05-07T12:07:01;27.96;49.96
71117;SHT31;58775;46.992;9.518;2023-05-07T12:09:04;29.02;47.77
71117;SHT31;58775;46.992;9.518;2023-05-07T12:11:13;27.83;50.48
71117;SHT31;58775;46.992;9.518;2023-05-07T12:13:16;28.89;44.91
71117;SHT31;58775;46.992;9.518;2023-05-07T12:15:23;29.30;45.54
71117;SHT31;58775;46.992;9.518;2023-05-07T12:17:26;28.72;47.11
71117;SHT31;58775;46.992;9.518;2023-05-07T12:19:30;28.13;44.74
71117;SHT31;58775;46.992;9.518;2023-05-07T12:21:33;27.69;43.77
71117;SHT31;58775;46.992;9.518;2023-05-07T12:23:37;27.39;45.94
71117;SHT31;58775;46.992;9.518;2023-05-07T12:25:42;27.38;44.93
71117;SHT31;58775;46.992;9.518;2023-05-07T12:27:52;27.93;44.12
71117;SHT31;58775;46.992;9.518;2023-05-07T12:29:58;26.92;47.79
71117;SHT31;58775;46.992;9.518;2023-05-07T12:32:02;26.60;47.29
71117;SHT31;58775;46.992;9.518;2023-05-07T12:34:06;25.74;46.06
71117;SHT31;58775;46.992;9.518;2023-05-07T12:36:11;26.05;45.92
71117;SHT31;58775;46.992;9.518;2023-05-07T12:38:16;25.08;47.76
71117;SHT31;58775;46.992;9.518;2023-05-07T12:40:18;25.49;47.43
71117;SHT31;58775;46.992;9.518;2023-05-07T12:42:21;24.97;48.43
71117;SHT31;58775;46.992;9.518;2023-05-07T12:44:32;24.02;50.09
71117;SHT31;58775;46.992;9.518;2023-05-07T12:46:39;24.60;50.10
71117;SHT31;58775;46.992;9.518;2023-05-07T12:48:45;25.13;49.94
71117;SHT31;58775;46.992;9.518;2023-05-07T12:50:51;25.00;48.05
71117;SHT31;58775;46.992;9.518;2023-05-07T12:52:56;24.69;47.79
71117;SHT31;58775;46.992;9.518;2023-05-07T12:55:07;24.52;48.85
71117;SHT31;58775;46.992;9.518;2023-05-07T12:57:10;24.70;49.35
71117;SHT31;58775;46.992;9.518;2023-05-07T12:59:14;24.93;48.19
71117;SHT31;58775;46.992;9.518;2023-05-07T13:01:17;25.33;48.52
71117;SHT31;58775;46.992;9.518;2023-05-07T13:03:32;25.48;48.06
71117;SHT31;58775;46.992;9.518;2023-05-07T13:06:02;24.93;46.94
71117;SHT31;58775;46.992;9.518;2023-05-07T13:08:07;25.18;48.36
71117;SHT31;58775;46.992;9.518;2023-05-07T13:10:12;24.91;47.42
71117;SHT31;58775;46.992;9.518;2023-05-07T13:12:16;25.37;47.39
71117;SHT31;58775;46.992;9.518;2023-05-07T13:14:20;25.44;49.67
71117;SHT31;58775;46.992;9.518;2023-05-07T13:16:24;24.60;47.60
71117;SHT31;58775;46.992;9.518;2023-05-07T13:18:29;24.11;56.98
71117;SHT31;58775;46.992;9.518;2023-05-07T13:20:32;24.53;51.65
71117;SHT31;58775;46.992;9.518;2023-05-07T13:22:36;24.25;56.17
71117;SHT31;58775;46.992;9.518;2023-05-07T13:24:39;24.49;54.81
71117;SHT31;58775;46.992;9.518;2023-05-07T13:26:42;24.19;53.35
71117;SHT31;58775;46.992;9.518;2023-05-07T13:28:46;24.30;57.83
71117;SHT31;58775;46.992;9.518;2023-05-07T13:30:50;23.98;58.68
71117;SHT31;58775;46.992;9.518;2023-05-07T13:32:55;24.40;53.25
71117;SHT31;58775;46.992;9.518;2023-05-07T13:34:59;24.73;50.91
71117;SHT31;58775;46.992;9.518;2023-05-07T13:37:02;24.72;50.90
71117;SHT31;58775;46.992;9.518;2023-05-07T13:39:05;24.93;54.82
71117;SHT31;58775;46.992;9.518;2023-05-07T13:41:08;25.20;53.84
71117;SHT31;58775;46.992;9.518;2023-05-07T13:43:12;25.33;47.77
71117;SHT31;58775;46.992;9.518;2023-05-07T13:45:15;25.00;47.06
71117;SHT31;58775;46.992;9.518;2023-05-07T13:47:18;25.34;46.36
71117;SHT31;58775;46.992;9.518;2023-05-07T13:49:20;25.28;47.25
71117;SHT31;58775;46.992;9.518;2023-05-07T13:51:28;25.13;47.19
71117;SHT31;58775;46.992;9.518;2023-05-07T13:53:33;25.17;48.20
71117;SHT31;58775;46.992;9.518;2023-05-07T13:55:38;24.97;54.14
71117;SHT31;58775;46.992;9.518;2023-05-07T13:57:42;25.78;47.11
71117;SHT31;58775;46.992;9.518;2023-05-07T13:59:45;26.29;47.22
71117;SHT31;58775;46.992;9.518;2023-05-07T14:01:49;25.61;46.56
71117;SHT31;58775;46.992;9.518;2023-05-07T14:03:52;25.15;53.46
71117;SHT31;58775;46.992;9.518;2023-05-07T14:05:55;25.31;49.89
71117;SHT31;58775;46.992;9.518;2023-05-07T14:08:00;25.51;50.00
71117;SHT31;58775;46.992;9.518;2023-05-07T14:10:06;24.97;57.07
71117;SHT31;58775;46.992;9.518;2023-05-07T14:12:10;25.48;48.33
71117;SHT31;58775;46.992;9.518;2023-05-07T14:14:13;25.74;51.24
71117;SHT31;58775;46.992;9.518;2023-05-07T14:16:16;25.03;47.77
71117;SHT31;58775;46.992;9.518;2023-05-07T14:18:20;24.39;59.00
71117;SHT31;58775;46.992;9.518;2023-05-07T14:20:25;24.36;51.60
71117;SHT31;58775;46.992;9.518;2023-05-07T14:22:27;24.48;55.09
71117;SHT31;58775;46.992;9.518;2023-05-07T14:24:31;23.91;58.22
71117;SHT31;58775;46.992;9.518;2023-05-07T14:26:34;24.29;55.02
71117;SHT31;58775;46.992;9.518;2023-05-07T14:28:37;24.37;55.24
71117;SHT31;58775;46.992;9.518;2023-05-07T14:30:40;24.70;54.80
71117;SHT31;58775;46.992;9.518;2023-05-07T14:32:44;24.91;54.99
71117;SHT31;58775;46.992;9.518;2023-05-07T14:34:49;25.23;52.93
71117;SHT31;58775;46.992;9.518;2023-05-07T14:36:52;24.62;55.30
71117;SHT31;58775;46.992;9.518;2023-05-07T14:38:55;24.97;55.63
71117;SHT31;58775;46.992;9.518;2023-05-07T14:41:00;25.24;49.71
71117;SHT31;58775;46.992;9.518;2023-05-07T14:43:04;25.02;53.37
71117;SHT31;58775;46.992;9.518;2023-05-07T14:45:09;24.67;53.94
71117;SHT31;58775;46.992;9.518;2023-05-07T14:47:12;24.72;54.55
71117;SHT31;58775;46.992;9.518;2023-05-07T14:49:14;24.77;48.87
71117;SHT31;58775;46.992;9.518;2023-05-07T14:51:21;23.97;57.25
71117;SHT31;58775;46.992;9.518;2023-05-07T14:53:24;23.55;61.56
71117;SHT31;58775;46.992;9.518;2023-05-07T14:55:27;24.16;55.19
71117;SHT31;58775;46.992;9.518;2023-05-07T14:57:30;23.70;59.98
71117;SHT31;58775;46.992;9.518;2023-05-07T14:59:37;23.71;54.56
71117;SHT31;58775;46.992;9.518;2023-05-07T15:01:40;23.44;62.09
71117;SHT31;58775;46.992;9.518;2023-05-07T15:03:48;23.57;62.01
71117;SHT31;58775;46.992;9.518;2023-05-07T15:05:52;23.06;65.83
71117;SHT31;58775;46.992;9.518;2023-05-07T15:07:54;23.17;61.92
71117;SHT31;58775;46.992;9.518;2023-05-07T15:09:58;22.45;64.87
71117;SHT31;58775;46.992;9.518;2023-05-07T15:12:00;22.73;64.73
71117;SHT31;58775;46.992;9.518;2023-05-07T15:14:04;22.56;65.22
71117;SHT31;58775;46.992;9.518;2023-05-07T15:16:06;21.86;70.18
71117;SHT31;58775;46.992;9.518;2023-05-07T15:18:09;21.73;69.05
71117;SHT31;58775;46.992;9.518;2023-05-07T15:20:11;21.50;68.08
71117;SHT31;58775;46.992;9.518;2023-05-07T15:22:13;21.60;66.78
71117;SHT31;58775;46.992;9.518;2023-05-07T15:24:15;21.67;66.17
71117;SHT31;58775;46.992;9.518;2023-05-07T15:26:17;21.67;61.08
71117;SHT31;58775;46.992;9.518;2023-05-07T15:28:20;21.63;67.59
71117;SHT31;58775;46.992;9.518;2023-05-07T15:30:22;21.36;70.21
71117;SHT31;58775;46.992;9.518;2023-05-07T15:32:24;21.20;69.60
71117;SHT31;58775;46.992;9.518;2023-05-07T15:34:26;20.81;69.51
71117;SHT31;58775;46.992;9.518;2023-05-07T15:36:28;20.63;72.99
71117;SHT31;58775;46.992;9.518;2023-05-07T15:38:31;20.47;66.41
71117;SHT31;58775;46.992;9.518;2023-05-07T15:40:33;20.30;73.21
71117;SHT31;58775;46.992;9.518;2023-05-07T15:42:39;20.03;67.30
71117;SHT31;58775;46.992;9.518;2023-05-07T15:44:42;19.41;78.49
71117;SHT31;58775;46.992;9.518;2023-05-07T15:46:59;19.35;78.34
71117;SHT31;58775;46.992;9.518;2023-05-07T15:49:03;18.68;83.44
71117;SHT31;58775;46.992;9.518;2023-05-07T15:51:05;18.05;86.85
71117;SHT31;58775;46.992;9.518;2023-05-07T15:53:09;18.02;88.36
71117;SHT31;58775;46.992;9.518;2023-05-07T15:55:16;17.79;88.12
71117;SHT31;58775;46.992;9.518;2023-05-07T15:57:19;17.64;88.65
71117;SHT31;58775;46.992;9.518;2023-05-07T15:59:23;17.41;89.29
71117;SHT31;58775;46.992;9.518;2023-05-07T16:01:28;17.35;89.07
71117;SHT31;58775;46.992;9.518;2023-05-07T16:03:34;17.38;88.33
71117;SHT31;58775;46.992;9.518;2023-05-07T16:05:39;17.21;91.67
71117;SHT31;58775;46.992;9.518;2023-05-07T16:07:42;17.23;90.55
71117;SHT31;58775;46.992;9.518;2023-05-07T16:09:46;16.99;88.76
71117;SHT31;58775;46.992;9.518;2023-05-07T16:11:49;17.06;90.34
71117;SHT31;58775;46.992;9.518;2023-05-07T16:13:52;17.07;89.96
71117;SHT31;58775;46.992;9.518;2023-05-07T16:15:56;16.94;90.41
71117;SHT31;58775;46.992;9.518;2023-05-07T16:18:05;17.16;89.60
71117;SHT31;58775;46.992;9.518;2023-05-07T16:20:09;17.06;89.04
71117;SHT31;58775;46.992;9.518;2023-05-07T16:22:14;17.03;88.93
71117;SHT31;58775;46.992;9.518;2023-05-07T16:24:18;17.23;87.82
71117;SHT31;58775;46.992;9.518;2023-05-07T16:26:21;17.23;90.93
71117;SHT31;58775;46.992;9.518;2023-05-07T16:28:25;16.87;91.36
71117;SHT31;58775;46.992;9.518;2023-05-07T16:30:28;16.86;90.01
71117;SHT31;58775;46.992;9.518;2023-05-07T16:32:32;16.83;91.51
71117;SHT31;58775;46.992;9.518;2023-05-07T16:34:36;16.93;89.08
71117;SHT31;58775;46.992;9.518;2023-05-07T16:36:40;17.04;88.66
71117;SHT31;58775;46.992;9.518;2023-05-07T16:38:43;17.02;90.89
71117;SHT31;58775;46.992;9.518;2023-05-07T16:40:48;17.09;89.36
71117;SHT31;58775;46.992;9.518;2023-05-07T16:42:51;16.90;90.44
71117;SHT31;58775;46.992;9.518;2023-05-07T16:44:55;16.91;90.19
71117;SHT31;58775;46.992;9.518;2023-05-07T16:47:02;17.02;89.88
71117;SHT31;58775;46.992;9.518;2023-05-07T16:49:08;16.66;90.06
71117;SHT31;58775;46.992;9.518;2023-05-07T16:51:12;16.56;90.31
71117;SHT31;58775;46.992;9.518;2023-05-07T16:53:15;16.72;89.87
71117;SHT31;58775;46.992;9.518;2023-05-07T16:55:18;16.89;88.70
71117;SHT31;58775;46.992;9.518;2023-05-07T16:57:23;16.53;89.13
71117;SHT31;58775;46.992;9.518;2023-05-07T16:59:28;16.58;88.26
71117;SHT31;58775;46.992;9.518;2023-05-07T17:01:37;16.45;90.30
71117;SHT31;58775;46.992;9.518;2023-05-07T17:03:39;16.11;89.99
71117;SHT31;58775;46.992;9.518;2023-05-07T17:05:44;16.02;89.92
71117;SHT31;58775;46.992;9.518;2023-05-07T17:07:52;16.19;90.11
71117;SHT31;58775;46.992;9.518;2023-05-07T17:09:55;16.24;88.72
71117;SHT31;58775;46.992;9.518;2023-05-07T17:12:02;16.21;90.08
71117;SHT31;58775;46.992;9.518;2023-05-07T17:14:07;16.32;90.18
71117;SHT31;58775;46.992;9.518;2023-05-07T17:16:10;16.38;89.12
71117;SHT31;58775;46.992;9.518;2023-05-07T17:18:13;16.53;84.38
71117;SHT31;58775;46.992;9.518;2023-05-07T17:20:17;16.39;86.74
71117;SHT31;58775;46.992;9.518;2023-05-07T17:22:24;16.41;88.86
71117;SHT31;58775;46.992;9.518;2023-05-07T17:24:29;16.17;90.46
71117;SHT31;58775;46.992;9.518;2023-05-07T17:26:31;16.28;90.05
71117;SHT31;58775;46.992;9.518;2023-05-07T17:28:37;16.19;91.34
71117;SHT31;58775;46.992;9.518;2023-05-07T17:30:41;16.05;91.57
71117;SHT31;58775;46.992;9.518;2023-05-07T17:32:44;16.15;90.35
71117;SHT31;58775;46.992;9.518;2023-05-07T17:34:47;16.19;89.07
71117;SHT31;58775;46.992;9.518;2023-05-07T17:36:50;16.18;88.81
71117;SHT31;58775;46.992;9.518;2023-05-07T17:38:54;16.25;87.71
71117;SHT31;58775;46.992;9.518;2023-05-07T17:40:58;16.15;89.75
71117;SHT31;58775;46.992;9.518;2023-05-07T17:43:01;16.14;89.99
71117;SHT31;58775;46.992;9.518;2023-05-07T17:45:05;16.07;87.73
71117;SHT31;58775;46.992;9.518;2023-05-07T17:47:09;16.36;84.64
71117;SHT31;58775;46.992;9.518;2023-05-07T17:49:15;16.24;88.07
71117;SHT31;58775;46.992;9.518;2023-05-07T17:51:18;16.30;86.82
71117;SHT31;58775;46.992;9.518;2023-05-07T17:53:22;16.05;84.57
71117;SHT31;58775;46.992;9.518;2023-05-07T17:55:25;16.01;84.54
71117;SHT31;58775;46.992;9.518;2023-05-07T17:57:28;16.00;84.63
71117;SHT31;58775;46.992;9.518;2023-05-07T17:59:33;16.01;84.59
71117;SHT31;58775;46.992;9.518;2023-05-07T18:01:39;15.84;85.34
71117;SHT31;58775;46.992;9.518;2023-05-07T18:03:42;15.67;86.15
71117;SHT31;58775;46.992;9.518;2023-05-07T18:05:45;15.68;85.51
71117;SHT31;58775;46.992;9.518;2023-05-07T18:07:49;15.60;85.82
71117;SHT31;58775;46.992;9.518;2023-05-07T18:09:55;15.51;85.45
71117;SHT31;58775;46.992;9.518;2023-05-07T18:12:03;15.56;86.90
71117;SHT31;58775;46.992;9.518;2023-05-07T18:18:48;15.06;90.53
71117;SHT31;58775;46.992;9.518;2023-05-07T18:21:25;15.15;88.45
71117;SHT31;58775;46.992;9.518;2023-05-07T18:23:48;15.07;88.94
71117;SHT31;58775;46.992;9.518;2023-05-07T18:25:51;15.12;86.72
71117;SHT31;58775;46.992;9.518;2023-05-07T18:27:58;15.33;88.45
71117;SHT31;58775;46.992;9.518;2023-05-07T18:30:23;15.06;89.34
71117;SHT31;58775;46.992;9.518;2023-05-07T18:32:36;14.67;91.56
71117;SHT31;58775;46.992;9.518;2023-05-07T18:48:08;15.02;90.60
71117;SHT31;58775;46.992;9.518;2023-05-07T18:57:19;14.93;89.93
71117;SHT31;58775;46.992;9.518;2023-05-07T18:59:26;14.75;92.26
71117;SHT31;58775;46.992;9.518;2023-05-07T19:01:29;14.86;90.94
71117;SHT31;58775;46.992;9.518;2023-05-07T19:03:34;14.72;91.32
71117;SHT31;58775;46.992;9.518;2023-05-07T19:05:39;14.69;92.63
71117;SHT31;58775;46.992;9.518;2023-05-07T19:07:55;14.64;88.84
71117;SHT31;58775;46.992;9.518;2023-05-07T19:10:00;14.72;91.80
71117;SHT31;58775;46.992;9.518;2023-05-07T19:12:07;14.74;90.39
71117;SHT31;58775;46.992;9.518;2023-05-07T19:14:15;14.58;91.35
71117;SHT31;58775;46.992;9.518;2023-05-07T19:16:52;14.60;92.39
71117;SHT31;58775;46.992;9.518;2023-05-07T19:18:57;14.69;88.14
71117;SHT31;58775;46.992;9.518;2023-05-07T19:21:04;14.95;88.32
71117;SHT31;58775;46.992;9.518;2023-05-07T19:23:11;14.84;90.69
71117;SHT31;58775;46.992;9.518;2023-05-07T19:25:14;14.93;89.79
71117;SHT31;58775;46.992;9.518;2023-05-07T19:27:24;14.65;90.48
71117;SHT31;58775;46.992;9.518;2023-05-07T19:32:57;15.03;84.18
71117;SHT31;58775;46.992;9.518;2023-05-07T19:35:08;15.10;84.81
71117;SHT31;58775;46.992;9.518;2023-05-07T19:37:11;15.19;84.98
71117;SHT31;58775;46.992;9.518;2023-05-07T19:39:18;15.16;86.92
71117;SHT31;58775;46.992;9.518;2023-05-07T19:41:29;15.30;84.26
71117;SHT31;58775;46.992;9.518;2023-05-07T19:43:38;15.32;86.08
71117;SHT31;58775;46.992;9.518;2023-05-07T19:45:41;15.54;84.59
71117;SHT31;58775;46.992;9.518;2023-05-07T19:48:13;15.53;85.84
71117;SHT31;58775;46.992;9.518;2023-05-07T19:50:26;15.50;85.95
71117;SHT31;58775;46.992;9.518;2023-05-07T19:53:06;15.37;86.23
71117;SHT31;58775;46.992;9.518;2023-05-07T19:55:12;15.46;86.40
71117;SHT31;58775;46.992;9.518;2023-05-07T19:57:14;15.42;84.38
71117;SHT31;58775;46.992;9.518;2023-05-07T19:59:20;15.40;84.53
71117;SHT31;58775;46.992;9.518;2023-05-07T20:01:26;15.40;83.71
71117;SHT31;58775;46.992;9.518;2023-05-07T20:03:30;15.46;83.74
71117;SHT31;58775;46.992;9.518;2023-05-07T20:05:35;15.35;86.48
71117;SHT31;58775;46.992;9.518;2023-05-07T20:07:39;15.20;87.32
71117;SHT31;58775;46.992;9.518;2023-05-07T20:09:41;15.18;89.64
71117;SHT31;58775;46.992;9.518;2023-05-07T20:11:44;15.06;89.63
71117;SHT31;58775;46.992;9.518;2023-05-07T20:13:48;15.12;89.51
71117;SHT31;58775;46.992;9.518;2023-05-07T20:15:51;15.30;88.28
71117;SHT31;58775;46.992;9.518;2023-05-07T20:17:55;15.13;89.00
71117;SHT31;58775;46.992;9.518;2023-05-07T20:20:00;14.84;91.53
71117;SHT31;58775;46.992;9.518;2023-05-07T20:22:05;14.85;91.46
71117;SHT31;58775;46.992;9.518;2023-05-07T20:24:08;15.00;89.50
71117;SHT31;58775;46.992;9.518;2023-05-07T20:26:11;15.07;89.49
71117;SHT31;58775;46.992;9.518;2023-05-07T20:28:15;15.07;87.53
71117;SHT31;58775;46.992;9.518;2023-05-07T20:30:18;14.93;83.86
71117;SHT31;58775;46.992;9.518;2023-05-07T20:32:23;15.06;84.64
71117;SHT31;58775;46.992;9.518;2023-05-07T20:34:26;15.15;86.14
71117;SHT31;58775;46.992;9.518;2023-05-07T20:36:30;15.18;87.08
71117;SHT31;58775;46.992;9.518;2023-05-07T20:38:33;15.19;85.76
71117;SHT31;58775;46.992;9.518;2023-05-07T20:40:36;14.99;84.88